Time;durP1;ratioP1;P1;durP2;ratioP2;P2;SDS_P1;SDS_P2;PMS_P1;PMS_P2;Temp;Humidity;BMP_temperature;BMP_pressure;BME280_temperature;BME280_humidity;BME280_pressure;Samples;Min_cycle;Max_cycle;Signal;HPM_P1;HPM_P2
2022/10/16 00:03:52;;;;;;;6.60;2.40;;;12.60;99.90;;;;;;7323444;32;20141;-62
2022/10/16 00:07:54;;;;;;;4.50;2.05;;;12.60;99.90;;;;;;7320226;32;20111;-60
2022/10/16 00:11:56;;;;;;;4.05;1.85;;;12.50;99.90;;;;;;7319289;32;20130;-60
2022/10/16 00:15:59;;;;;;;6.47;2.22;;;12.50;99.90;;;;;;7315562;32;20666;-60
2022/10/16 00:20:01;;;;;;;6.40;2.28;;;12.50;99.90;;;;;;7313628;32;20464;-60
2022/10/16 00:24:06;;;;;;;3.00;1.75;;;12.50;99.90;;;;;;7318732;32;20137;-60
2022/10/16 00:28:08;;;;;;;5.55;1.73;;;12.50;99.90;;;;;;7320808;32;20158;-60
2022/10/16 00:32:09;;;;;;;6.25;2.67;;;12.40;99.90;;;;;;7317235;32;20166;-59
2022/10/16 00:36:15;;;;;;;3.37;2.17;;;12.40;99.90;;;;;;7315018;32;20116;-60
2022/10/16 00:40:17;;;;;;;5.05;1.90;;;12.40;99.90;;;;;;7322919;32;20129;-60
2022/10/16 00:44:56;;;;;;;4.28;1.95;;;12.40;99.90;;;;;;7322907;32;20455;-60
2022/10/16 00:49:12;;;;;;;5.30;1.90;;;12.30;99.90;;;;;;7317657;32;20124;-60
2022/10/16 00:53:15;;;;;;;3.58;1.90;;;12.30;99.90;;;;;;7319491;32;20854;-60
2022/10/16 00:57:17;;;;;;;7.65;1.87;;;12.20;99.90;;;;;;7320511;32;20523;-60
2022/10/16 01:01:19;;;;;;;3.12;1.60;;;12.20;99.90;;;;;;7315388;32;20120;-60
2022/10/16 01:05:33;;;;;;;2.75;1.50;;;12.20;99.90;;;;;;7318213;32;20179;-60
2022/10/16 01:09:51;;;;;;;4.15;1.55;;;12.10;99.90;;;;;;7320370;32;20179;-60
2022/10/16 01:13:57;;;;;;;2.40;1.70;;;12.10;99.90;;;;;;7316011;32;20135;-60
2022/10/16 01:18:04;;;;;;;4.15;1.67;;;12.10;99.90;;;;;;7321109;32;20200;-60
2022/10/16 01:22:09;;;;;;;3.42;1.52;;;12.00;99.90;;;;;;7316105;32;20135;-60
2022/10/16 01:26:38;;;;;;;3.62;1.65;;;12.00;99.90;;;;;;7318944;32;20103;-60
2022/10/16 01:30:43;;;;;;;5.37;2.10;;;12.00;99.90;;;;;;7320185;32;20112;-59
2022/10/16 01:34:52;;;;;;;2.28;1.62;;;11.90;99.90;;;;;;7321554;32;20112;-60
2022/10/16 01:39:00;;;;;;;4.10;1.90;;;11.90;99.90;;;;;;7324669;32;20108;-60
2022/10/16 01:43:22;;;;;;;5.28;2.10;;;11.90;99.90;;;;;;7315636;32;20139;-59
2022/10/16 01:47:25;;;;;;;6.03;2.00;;;11.90;99.90;;;;;;7312445;32;20763;-60
2022/10/16 01:51:29;;;;;;;6.28;1.92;;;11.90;99.90;;;;;;7317147;32;20119;-60
2022/10/16 01:55:35;;;;;;;6.70;1.90;;;11.90;99.90;;;;;;7314134;32;20120;-59
2022/10/16 01:59:43;;;;;;;3.53;1.90;;;11.90;99.90;;;;;;7313633;32;20131;-61
2022/10/16 02:03:48;;;;;;;5.37;2.05;;;12.00;99.90;;;;;;7330031;32;20576;-61
2022/10/16 02:07:50;;;;;;;4.93;2.10;;;12.00;99.90;;;;;;7318410;32;20111;-60
2022/10/16 02:11:54;;;;;;;5.37;1.80;;;12.00;99.90;;;;;;7310745;32;20120;-60
2022/10/16 02:15:56;;;;;;;3.53;2.00;;;12.00;99.90;;;;;;7308059;32;20202;-60
2022/10/16 02:19:59;;;;;;;3.30;1.65;;;12.10;99.90;;;;;;7310809;32;20119;-60
2022/10/16 02:24:00;;;;;;;5.15;1.87;;;12.10;99.90;;;;;;7310371;32;20261;-60
2022/10/16 02:28:12;;;;;;;5.28;2.25;;;12.10;99.90;;;;;;7318943;32;20234;-60
2022/10/16 02:32:19;;;;;;;3.90;1.95;;;12.10;99.90;;;;;;7320291;32;20209;-59
2022/10/16 02:36:21;;;;;;;4.53;1.80;;;12.10;99.90;;;;;;7318300;32;20770;-60
2022/10/16 02:40:24;;;;;;;4.87;1.83;;;12.20;99.90;;;;;;7309619;32;20183;-60
2022/10/16 02:44:26;;;;;;;5.05;1.98;;;12.30;99.90;;;;;;7307370;32;20206;-60
2022/10/16 02:48:27;;;;;;;2.50;1.75;;;12.40;99.90;;;;;;7315239;32;20479;-60
2022/10/16 02:52:29;;;;;;;2.10;1.50;;;12.40;99.90;;;;;;7321632;32;20111;-59
2022/10/16 02:56:31;;;;;;;3.17;1.87;;;12.50;99.90;;;;;;7323259;32;20123;-60
2022/10/16 03:00:33;;;;;;;3.95;2.10;;;12.50;99.90;;;;;;7312979;32;20103;-60
2022/10/16 03:04:34;;;;;;;5.12;1.60;;;12.50;99.90;;;;;;7320571;32;20111;-60
2022/10/16 03:08:36;;;;;;;2.62;1.70;;;12.50;99.90;;;;;;7312708;32;20240;-60
2022/10/16 03:12:38;;;;;;;4.03;1.67;;;12.50;99.90;;;;;;7310355;32;20131;-60
2022/10/16 03:16:39;;;;;;;3.67;1.52;;;12.50;99.90;;;;;;7316137;32;20448;-59
2022/10/16 03:20:42;;;;;;;2.80;1.48;;;12.50;99.90;;;;;;7321318;32;20843;-60
2022/10/16 03:24:44;;;;;;;2.00;1.50;;;12.50;99.90;;;;;;7321678;32;20119;-59
2022/10/16 03:28:46;;;;;;;2.10;1.35;;;12.40;99.90;;;;;;7311143;32;20198;-60
2022/10/16 03:32:48;;;;;;;3.47;1.50;;;12.50;99.90;;;;;;7316266;32;20103;-60
2022/10/16 03:36:49;;;;;;;4.05;1.40;;;12.40;99.90;;;;;;7318814;32;20245;-60
2022/10/16 03:40:51;;;;;;;3.72;1.52;;;12.40;99.90;;;;;;7319624;32;20116;-59
2022/10/16 03:44:53;;;;;;;3.92;1.40;;;12.40;99.90;;;;;;7328661;32;20479;-60
2022/10/16 03:48:55;;;;;;;4.37;1.27;;;12.40;99.90;;;;;;7321890;32;20844;-60
2022/10/16 03:52:56;;;;;;;4.32;1.37;;;12.30;99.90;;;;;;7318057;32;20217;-60
2022/10/16 03:56:58;;;;;;;2.78;1.30;;;12.30;99.90;;;;;;7314845;32;20108;-60
2022/10/16 04:01:00;;;;;;;3.90;1.40;;;12.20;99.90;;;;;;7319976;32;20734;-61
2022/10/16 04:05:03;;;;;;;3.00;1.20;;;12.10;99.90;;;;;;7320389;32;20119;-60
2022/10/16 04:09:05;;;;;;;3.45;1.50;;;12.00;99.90;;;;;;7320103;32;20609;-61
2022/10/16 04:13:06;;;;;;;2.10;1.37;;;11.90;99.90;;;;;;7316182;32;20696;-60
2022/10/16 04:17:08;;;;;;;4.60;1.42;;;11.90;99.90;;;;;;7317024;32;20131;-59
2022/10/16 04:21:10;;;;;;;5.55;1.48;;;11.80;99.90;;;;;;7318778;32;20117;-60
2022/10/16 04:25:11;;;;;;;3.97;1.45;;;11.80;99.90;;;;;;7327104;32;20095;-60
2022/10/16 04:29:13;;;;;;;3.67;1.67;;;11.70;99.90;;;;;;7321240;32;20168;-61
2022/10/16 04:33:15;;;;;;;2.03;1.08;;;11.70;99.90;;;;;;7320327;32;20107;-60
2022/10/16 04:37:16;;;;;;;3.10;1.20;;;11.70;99.90;;;;;;7316788;32;20296;-59
2022/10/16 04:41:18;;;;;;;2.58;1.40;;;11.60;99.90;;;;;;7310561;32;20169;-60
2022/10/16 04:45:20;;;;;;;2.42;1.30;;;11.70;99.90;;;;;;7318529;32;20112;-60
2022/10/16 04:49:21;;;;;;;2.70;1.35;;;11.60;99.90;;;;;;7316861;32;20134;-60
2022/10/16 04:53:23;;;;;;;2.62;1.30;;;11.70;99.90;;;;;;7319638;32;20111;-60
2022/10/16 04:57:25;;;;;;;2.20;0.95;;;11.70;99.90;;;;;;7320572;32;20104;-60
2022/10/16 05:01:27;;;;;;;4.15;1.35;;;11.70;99.90;;;;;;7307879;32;20169;-61
2022/10/16 05:05:29;;;;;;;7.82;1.48;;;11.80;99.90;;;;;;7317307;32;21438;-60
2022/10/16 05:09:31;;;;;;;2.17;1.05;;;11.80;99.90;;;;;;7317848;32;20528;-60
2022/10/16 05:13:32;;;;;;;3.62;1.20;;;11.70;99.90;;;;;;7314371;32;20104;-61
2022/10/16 05:17:34;;;;;;;4.07;1.33;;;11.70;99.90;;;;;;7311605;32;20143;-61
2022/10/16 05:21:36;;;;;;;1.67;1.20;;;11.70;99.90;;;;;;7309342;32;20133;-60
2022/10/16 05:25:38;;;;;;;3.85;1.10;;;11.70;99.90;;;;;;7326113;32;20116;-60
2022/10/16 05:29:39;;;;;;;1.70;1.00;;;11.70;99.90;;;;;;7310787;32;20464;-60
2022/10/16 05:33:42;;;;;;;2.85;1.40;;;11.70;99.90;;;;;;7315121;32;20234;-60
2022/10/16 05:37:44;;;;;;;2.12;1.52;;;11.70;99.90;;;;;;7317915;32;20107;-60
2022/10/16 05:41:46;;;;;;;4.70;1.30;;;11.60;99.90;;;;;;7318900;32;20134;-60
2022/10/16 05:45:59;;;;;;;2.03;1.20;;;11.60;99.90;;;;;;7310203;32;20111;-60
2022/10/16 05:50:01;;;;;;;5.07;1.27;;;11.60;99.90;;;;;;7323867;32;20134;-64
2022/10/16 05:54:03;;;;;;;2.95;1.30;;;11.70;99.90;;;;;;7318324;32;20138;-64
2022/10/16 05:58:05;;;;;;;2.45;1.10;;;11.60;99.90;;;;;;7311918;32;20252;-64
2022/10/16 06:02:12;;;;;;;2.58;1.17;;;11.60;99.90;;;;;;7315515;32;20261;-67
2022/10/16 06:06:16;;;;;;;2.37;1.30;;;11.60;99.90;;;;;;7317784;32;20134;-65
2022/10/16 06:10:18;;;;;;;1.62;1.12;;;11.60;99.90;;;;;;7311702;32;20588;-65
2022/10/16 06:14:20;;;;;;;2.03;1.02;;;11.60;99.90;;;;;;7316485;32;20129;-65
2022/10/16 06:18:22;;;;;;;2.03;1.30;;;11.60;99.90;;;;;;7317548;32;20133;-63
2022/10/16 06:22:23;;;;;;;1.67;1.37;;;11.60;99.90;;;;;;7312691;32;20344;-68
2022/10/16 06:26:28;;;;;;;2.28;1.20;;;11.60;99.90;;;;;;7320134;32;20108;-66
2022/10/16 06:30:30;;;;;;;2.95;1.40;;;11.70;99.90;;;;;;7321577;32;20135;-65
2022/10/16 06:34:31;;;;;;;2.35;1.20;;;11.70;99.90;;;;;;7318136;32;20658;-65
2022/10/16 06:38:33;;;;;;;5.45;1.27;;;11.70;99.90;;;;;;7316863;32;20832;-66
2022/10/16 06:42:35;;;;;;;3.05;1.17;;;11.80;99.90;;;;;;7310068;32;20112;-64
2022/10/16 06:46:37;;;;;;;4.45;1.50;;;11.80;99.90;;;;;;7316707;32;20222;-65
2022/10/16 06:50:39;;;;;;;2.12;1.48;;;11.90;99.90;;;;;;7314020;32;20168;-65
2022/10/16 06:54:40;;;;;;;4.55;1.50;;;12.00;99.90;;;;;;7309117;32;20111;-66
2022/10/16 06:58:44;;;;;;;2.33;1.58;;;12.10;99.90;;;;;;7319948;32;20326;-65
2022/10/16 07:02:45;;;;;;;3.50;1.58;;;12.20;99.90;;;;;;7317792;32;20146;-65
2022/10/16 07:06:47;;;;;;;3.80;2.17;;;12.30;99.90;;;;;;7320777;32;20887;-65
2022/10/16 07:11:21;;;;;;;4.07;2.08;;;12.40;99.90;;;;;;7316900;32;20149;-67
2022/10/16 07:15:23;;;;;;;2.97;1.40;;;12.40;99.90;;;;;;7313157;32;20550;-67
2022/10/16 07:19:25;;;;;;;2.65;1.50;;;12.40;99.90;;;;;;7317456;32;20111;-67
2022/10/16 07:23:31;;;;;;;3.00;1.37;;;12.40;99.90;;;;;;7313399;32;20127;-65
2022/10/16 07:27:33;;;;;;;3.25;1.52;;;12.40;99.90;;;;;;7321431;32;20183;-65
2022/10/16 07:31:35;;;;;;;3.55;1.85;;;12.30;99.90;;;;;;7316775;32;20212;-65
2022/10/16 07:35:37;;;;;;;4.95;1.50;;;12.30;99.90;;;;;;7315842;32;20216;-66
2022/10/16 07:39:39;;;;;;;5.18;1.50;;;12.30;99.90;;;;;;7314452;32;20458;-65
2022/10/16 07:43:46;;;;;;;3.20;1.50;;;12.30;99.90;;;;;;7317646;32;20104;-66
2022/10/16 07:47:47;;;;;;;5.68;1.80;;;12.40;99.90;;;;;;7316531;32;20198;-65
2022/10/16 07:51:49;;;;;;;3.58;1.50;;;12.40;99.90;;;;;;7319629;32;20115;-66
2022/10/16 07:55:51;;;;;;;3.05;1.40;;;12.50;99.90;;;;;;7317481;32;20133;-67
2022/10/16 07:59:53;;;;;;;2.50;1.65;;;12.60;99.90;;;;;;7313645;32;20582;-65
2022/10/16 08:03:54;;;;;;;5.28;1.85;;;12.70;99.90;;;;;;7318084;32;20153;-65
2022/10/16 08:07:56;;;;;;;1.85;1.40;;;12.90;99.90;;;;;;7323033;32;20111;-64
2022/10/16 08:11:58;;;;;;;4.07;1.40;;;13.10;99.90;;;;;;7322935;32;20224;-60
2022/10/16 08:16:12;;;;;;;3.03;1.55;;;13.40;99.90;;;;;;7324159;32;20241;-62
2022/10/16 08:20:13;;;;;;;4.10;1.25;;;13.70;99.90;;;;;;7320110;32;20718;-61
2022/10/16 08:24:15;;;;;;;2.42;1.12;;;13.90;99.90;;;;;;7318475;32;20112;-65
2022/10/16 08:28:17;;;;;;;2.97;1.10;;;13.90;99.90;;;;;;7323619;32;20115;-65
2022/10/16 08:32:19;;;;;;;2.37;1.30;;;14.00;99.90;;;;;;7322518;32;20116;-65
2022/10/16 08:36:25;;;;;;;3.33;1.35;;;14.10;99.90;;;;;;7316728;32;20135;-65
2022/10/16 08:40:33;;;;;;;2.62;0.98;;;14.40;99.90;;;;;;7315890;32;20833;-65
2022/10/16 08:44:53;;;;;;;;;;;14.40;99.90;;;;;;7320023;32;20158;-65
2022/10/16 08:48:58;;;;;;;2.87;0.90;;;14.50;99.90;;;;;;7322592;32;20094;-65
2022/10/16 08:53:00;;;;;;;3.85;0.80;;;14.60;99.90;;;;;;7326805;32;20119;-64
2022/10/16 08:57:14;;;;;;;2.83;0.93;;;14.60;99.90;;;;;;7319114;32;20138;-65
2022/10/16 09:01:36;;;;;;;4.15;1.20;;;14.90;99.90;;;;;;7316949;32;20543;-64
2022/10/16 09:06:08;;;;;;;2.05;0.85;;;15.10;99.90;;;;;;7316116;32;20252;-64
2022/10/16 09:10:51;;;;;;;3.83;0.88;;;15.40;99.90;;;;;;7319286;32;20123;-64
2022/10/16 09:14:59;;;;;;;2.95;0.70;;;15.40;99.90;;;;;;7317010;32;20108;-64
2022/10/16 09:19:37;;;;;;;2.20;0.80;;;15.50;99.90;;;;;;7317305;32;20186;-64
2022/10/16 09:23:39;;;;;;;5.15;0.60;;;15.60;99.90;;;;;;7311753;32;20643;-64
2022/10/16 09:27:44;;;;;;;1.50;0.60;;;15.80;99.90;;;;;;7318658;32;20530;-60
2022/10/16 09:31:46;;;;;;;4.93;0.82;;;15.90;99.90;;;;;;7312737;32;20133;-60
2022/10/16 09:35:54;;;;;;;3.20;0.70;;;16.40;99.90;;;;;;7315679;32;20715;-59
2022/10/16 09:39:55;;;;;;;4.20;0.90;;;16.70;99.90;;;;;;7324202;32;20137;-63
2022/10/16 09:44:01;;;;;;;2.72;0.60;;;16.90;99.90;;;;;;7313352;32;20233;-61
2022/10/16 09:48:12;;;;;;;3.05;0.75;;;17.30;99.90;;;;;;7309250;32;20176;-67
2022/10/16 09:52:15;;;;;;;2.45;0.65;;;17.50;99.90;;;;;;7318636;32;20103;-65
2022/10/16 09:56:26;;;;;;;2.00;0.57;;;17.70;99.90;;;;;;7315198;32;20096;-67
2022/10/16 10:00:29;;;;;;;3.33;0.50;;;17.90;99.90;;;;;;7308190;32;20554;-66
2022/10/16 10:04:41;;;;;;;1.75;0.47;;;18.00;99.90;;;;;;7319196;32;20131;-66
2022/10/16 10:09:04;;;;;;;2.80;0.50;;;17.80;99.90;;;;;;7321316;32;20153;-65
2022/10/16 10:13:21;;;;;;;2.72;0.60;;;17.70;99.90;;;;;;7314637;32;20131;-65
2022/10/16 10:17:28;;;;;;;2.15;0.62;;;17.30;99.90;;;;;;7307420;32;20566;-67
2022/10/16 10:21:33;;;;;;;3.65;0.50;;;17.20;99.90;;;;;;7327617;32;20099;-66
2022/10/16 10:25:35;;;;;;;2.60;0.60;;;17.00;99.90;;;;;;7317781;32;20111;-65
2022/10/16 10:30:03;;;;;;;1.70;0.30;;;17.10;99.90;;;;;;7313695;32;20202;-65
2022/10/16 10:34:14;;;;;;;;;;;16.80;99.90;;;;;;7317528;32;20163;-65
2022/10/16 10:38:21;;;;;;;1.92;0.30;;;16.90;99.90;;;;;;7319288;32;20006;-65
2022/10/16 10:42:49;;;;;;;2.55;0.65;;;16.80;99.90;;;;;;7328988;32;20544;-66
2022/10/16 10:46:56;;;;;;;3.33;0.65;;;16.80;99.90;;;;;;7317741;32;20185;-65
2022/10/16 10:51:10;;;;;;;3.87;0.60;;;16.70;99.90;;;;;;7317943;32;20664;-65
2022/10/16 10:55:38;;;;;;;4.35;0.50;;;16.70;99.90;;;;;;7322086;32;20134;-65
2022/10/16 10:59:48;;;;;;;;;;;16.80;99.90;;;;;;7315064;32;20126;-65
2022/10/16 11:04:15;;;;;;;1.30;0.43;;;17.00;99.90;;;;;;7317607;32;20090;-65
2022/10/16 11:08:38;;;;;;;3.62;0.50;;;17.00;99.90;;;;;;7319622;32;20194;-65
2022/10/16 11:12:45;;;;;;;3.67;0.52;;;17.00;99.90;;;;;;7324543;32;20223;-66
2022/10/16 11:16:59;;;;;;;;;;;17.00;99.90;;;;;;7322443;32;20137;-66
2022/10/16 11:21:07;;;;;;;2.80;0.30;;;17.10;99.90;;;;;;7322570;32;20021;-65
2022/10/16 11:25:21;;;;;;;1.85;0.43;;;17.20;99.90;;;;;;7329660;32;20549;-64
2022/10/16 11:29:28;;;;;;;1.70;0.32;;;17.20;99.90;;;;;;7320254;32;20130;-66
2022/10/16 11:33:41;;;;;;;2.15;0.40;;;17.30;99.90;;;;;;7318619;32;20234;-66
2022/10/16 11:37:46;;;;;;;5.28;0.60;;;17.20;99.90;;;;;;7312886;32;20819;-67
2022/10/16 11:41:52;;;;;;;2.75;0.45;;;17.10;99.90;;;;;;7323980;32;20214;-65
2022/10/16 11:45:57;;;;;;;2.05;0.47;;;17.20;99.90;;;;;;7324340;32;20230;-66
2022/10/16 11:50:22;;;;;;;4.07;0.50;;;17.10;99.90;;;;;;7313263;32;20638;-65
2022/10/16 11:54:39;;;;;;;1.08;0.50;;;17.20;99.90;;;;;;7300909;32;20696;-65
2022/10/16 11:58:43;;;;;;;5.60;0.80;;;17.50;99.90;;;;;;7324055;32;20171;-64
2022/10/16 12:02:57;;;;;;;4.93;0.57;;;17.60;99.90;;;;;;7317099;32;20221;-67
2022/10/16 12:07:08;;;;;;;1.85;0.40;;;17.40;99.90;;;;;;7331129;32;20119;-65
2022/10/16 12:11:20;;;;;;;2.87;0.40;;;17.50;99.90;;;;;;7319943;32;20230;-62
2022/10/16 12:15:28;;;;;;;4.47;0.40;;;17.60;99.90;;;;;;7319939;32;20153;-61
2022/10/16 12:19:57;;;;;;;;;;;17.60;99.90;;;;;;7324019;32;20242;-63
2022/10/16 12:24:03;;;;;;;3.45;0.60;;;17.80;99.90;;;;;;7318702;32;20120;-60
2022/10/16 12:28:27;;;;;;;4.05;0.55;;;17.90;99.90;;;;;;7318308;32;20524;-61
2022/10/16 12:32:35;;;;;;;3.87;1.00;;;18.10;99.90;;;;;;7318520;32;20860;-66
2022/10/16 12:36:54;;;;;;;1.20;0.40;;;18.50;99.90;;;;;;7324299;32;20107;-67
2022/10/16 12:41:02;;;;;;;4.93;0.50;;;18.70;99.90;;;;;;7319421;32;20103;-65
2022/10/16 12:45:28;;;;;;;2.75;0.50;;;18.60;99.90;;;;;;7323424;32;20160;-65
2022/10/16 12:49:38;;;;;;;1.08;0.30;;;18.70;99.90;;;;;;7325651;32;20202;-65
2022/10/16 12:53:40;;;;;;;4.20;0.57;;;18.50;99.90;;;;;;7322502;32;20657;-61
2022/10/16 12:58:18;;;;;;;3.05;0.50;;;18.50;99.90;;;;;;7316759;32;20868;-64
2022/10/16 13:02:45;;;;;;;3.25;0.50;;;18.60;99.90;;;;;;7320809;32;20137;-67
2022/10/16 13:07:02;;;;;;;2.78;0.40;;;18.80;99.90;;;;;;7322181;32;20106;-64
2022/10/16 13:11:30;;;;;;;2.22;0.50;;;18.90;99.90;;;;;;7318368;32;20130;-66
2022/10/16 13:15:59;;;;;;;4.78;0.73;;;18.80;99.90;;;;;;7314853;32;20335;-65
2022/10/16 13:20:30;;;;;;;1.98;0.43;;;18.80;99.90;;;;;;7314694;32;20164;-66
2022/10/16 13:24:38;;;;;;;2.12;0.47;;;18.80;99.90;;;;;;7314974;32;20167;-65
2022/10/16 13:28:39;;;;;;;2.55;0.40;;;19.10;99.90;;;;;;7311837;32;20563;-66
2022/10/16 13:32:47;;;;;;;3.47;0.40;;;19.40;99.90;;;;;;7323642;32;20128;-64
2022/10/16 13:36:51;;;;;;;1.05;0.40;;;19.60;99.90;;;;;;7312647;32;20203;-63
2022/10/16 13:41:02;;;;;;;1.95;0.50;;;19.80;99.90;;;;;;7313428;32;20509;-74
2022/10/16 13:45:04;;;;;;;2.35;0.47;;;19.40;99.90;;;;;;7316405;32;20174;-64
2022/10/16 13:49:16;;;;;;;3.47;0.50;;;19.10;99.90;;;;;;7312857;32;20111;-64
2022/10/16 13:53:18;;;;;;;1.05;0.40;;;19.00;99.90;;;;;;7309366;32;20505;-72
2022/10/16 13:57:23;;;;;;;2.67;0.60;;;19.10;99.90;;;;;;7319250;32;20096;-64
2022/10/16 14:01:33;;;;;;;2.03;0.50;;;19.10;99.90;;;;;;7316979;32;20180;-64
2022/10/16 14:05:35;;;;;;;1.70;0.35;;;19.10;99.90;;;;;;7318848;32;20491;-69
2022/10/16 14:09:38;;;;;;;1.85;0.50;;;19.50;99.90;;;;;;7318474;32;20103;-63
2022/10/16 14:13:44;;;;;;;4.00;0.45;;;19.60;99.90;;;;;;7315434;32;20246;-71
2022/10/16 14:17:50;;;;;;;4.25;0.50;;;19.30;99.90;;;;;;7319876;32;20134;-65
2022/10/16 14:21:52;;;;;;;3.15;0.50;;;19.00;99.90;;;;;;7315972;32;20627;-64
2022/10/16 14:26:04;;;;;;;0.60;0.30;;;18.70;99.90;;;;;;7319640;32;20625;-72
2022/10/16 14:30:19;;;;;;;2.08;0.70;;;18.60;99.90;;;;;;7317696;32;20115;-66
2022/10/16 14:34:24;;;;;;;4.90;0.65;;;18.40;99.90;;;;;;7313837;32;20213;-65
2022/10/16 14:38:26;;;;;;;2.72;0.80;;;18.30;99.90;;;;;;7313185;32;20212;-70
2022/10/16 14:42:28;;;;;;;2.25;0.68;;;18.30;99.90;;;;;;7321568;32;20103;-63
2022/10/16 14:46:36;;;;;;;2.72;0.70;;;18.30;99.90;;;;;;7310650;32;20108;-65
2022/10/16 14:50:43;;;;;;;4.28;0.82;;;18.10;99.90;;;;;;7314444;32;20211;-63
2022/10/16 14:54:48;;;;;;;;;;;17.80;99.90;;;;;;7311133;32;20195;-64
2022/10/16 14:58:53;;;;;;;1.42;0.65;;;17.70;99.90;;;;;;7312484;32;20106;-64
2022/10/16 15:02:54;;;;;;;3.08;0.60;;;17.70;99.90;;;;;;7319279;32;20786;-64
2022/10/16 15:06:56;;;;;;;2.00;0.70;;;17.50;99.90;;;;;;7333552;32;20116;-64
2022/10/16 15:10:58;;;;;;;3.20;0.80;;;17.40;99.90;;;;;;7316913;32;20127;-73
2022/10/16 15:15:00;;;;;;;2.90;0.80;;;17.30;99.90;;;;;;7316987;32;20206;-65
2022/10/16 15:19:01;;;;;;;3.35;0.90;;;17.20;99.90;;;;;;7314016;32;20218;-66
2022/10/16 15:23:15;;;;;;;2.72;0.70;;;17.20;99.90;;;;;;7319857;32;20112;-65
2022/10/16 15:27:17;;;;;;;5.62;0.80;;;17.10;99.90;;;;;;7318471;32;20127;-64
2022/10/16 15:31:19;;;;;;;4.53;0.98;;;16.90;99.90;;;;;;7315858;32;20130;-73
2022/10/16 15:35:21;;;;;;;4.93;1.23;;;16.80;99.90;;;;;;7323494;32;20219;-64
2022/10/16 15:39:22;;;;;;;9.25;1.50;;;16.70;99.90;;;;;;7316498;32;20225;-65
2022/10/16 15:43:24;;;;;;;5.68;1.37;;;16.70;99.90;;;;;;7320374;32;20217;-65
2022/10/16 15:47:26;;;;;;;6.68;1.37;;;16.60;99.90;;;;;;7316187;32;20136;-65
2022/10/16 15:51:29;;;;;;;7.68;1.52;;;16.40;99.90;;;;;;7319748;32;20129;-65
2022/10/16 15:55:31;;;;;;;8.40;1.58;;;16.40;99.90;;;;;;7316754;32;20566;-64
2022/10/16 15:59:32;;;;;;;6.60;1.30;;;16.20;99.90;;;;;;7315376;32;20130;-73
2022/10/16 16:03:35;;;;;;;14.40;1.83;;;16.10;99.90;;;;;;7319156;32;20141;-65
2022/10/16 16:07:38;;;;;;;5.35;1.30;;;16.00;99.90;;;;;;7311514;32;20629;-64
2022/10/16 16:11:40;;;;;;;7.32;1.58;;;15.90;99.90;;;;;;7309456;32;20207;-66
2022/10/16 16:15:42;;;;;;;6.07;1.58;;;15.90;99.90;;;;;;7315461;32;20120;-65
2022/10/16 16:19:45;;;;;;;12.63;1.75;;;15.70;99.90;;;;;;7316745;32;20161;-65
2022/10/16 16:23:47;;;;;;;9.02;1.77;;;15.70;99.90;;;;;;7322280;32;20141;-64
2022/10/16 16:27:49;;;;;;;5.40;1.50;;;15.60;99.90;;;;;;7322918;32;20529;-64
2022/10/16 16:31:56;;;;;;;8.25;3.03;;;15.50;99.90;;;;;;7316464;32;20814;-65
2022/10/16 16:36:00;;;;;;;4.62;2.25;;;15.50;99.90;;;;;;7322919;32;20765;-65
2022/10/16 16:40:02;;;;;;;11.95;3.17;;;15.40;99.90;;;;;;7326925;32;20145;-65
2022/10/16 16:44:06;;;;;;;31.65;20.95;;;15.30;99.90;;;;;;7322729;32;20265;-64
2022/10/16 16:48:07;;;;;;;8.20;5.20;;;15.20;99.90;;;;;;7317811;32;20508;-63
2022/10/16 16:52:09;;;;;;;10.57;3.83;;;15.10;99.90;;;;;;7312716;32;20111;-62
2022/10/16 16:56:11;;;;;;;7.05;2.75;;;15.00;99.90;;;;;;7312058;32;20119;-63
2022/10/16 17:00:13;;;;;;;8.60;2.20;;;15.00;99.90;;;;;;7312932;32;20269;-62
2022/10/16 17:04:15;;;;;;;8.30;2.78;;;14.90;99.90;;;;;;7316183;32;20268;-61
2022/10/16 17:08:17;;;;;;;12.50;2.25;;;14.80;99.90;;;;;;7320369;32;20123;-61
2022/10/16 17:12:18;;;;;;;11.63;2.50;;;14.80;99.90;;;;;;7315550;32;20784;-61
2022/10/16 17:16:22;;;;;;;6.93;1.80;;;14.70;99.90;;;;;;7316005;32;20564;-61
2022/10/16 17:20:24;;;;;;;9.57;2.40;;;14.70;99.90;;;;;;7311239;32;20505;-62
2022/10/16 17:24:25;;;;;;;6.00;2.50;;;14.60;99.90;;;;;;7311933;32;20943;-61
2022/10/16 17:28:27;;;;;;;28.85;15.52;;;14.50;99.90;;;;;;7321126;32;20103;-61
2022/10/16 17:32:29;;;;;;;9.13;4.55;;;14.50;99.90;;;;;;7317619;32;20127;-61
2022/10/16 17:36:33;;;;;;;15.35;7.87;;;14.50;99.90;;;;;;7314617;32;20219;-61
2022/10/16 17:40:35;;;;;;;18.20;5.62;;;14.40;99.90;;;;;;7312336;32;20761;-62
2022/10/16 17:44:37;;;;;;;11.18;3.45;;;14.40;99.90;;;;;;7318249;32;20100;-62
2022/10/16 17:48:40;;;;;;;9.43;3.90;;;14.40;99.90;;;;;;7314091;32;20835;-62
2022/10/16 17:52:42;;;;;;;7.30;3.37;;;14.40;99.90;;;;;;7315437;32;20214;-62
2022/10/16 17:56:44;;;;;;;10.55;3.47;;;14.30;99.90;;;;;;7316476;32;20230;-62
2022/10/16 18:00:46;;;;;;;9.35;2.70;;;14.30;99.90;;;;;;7318225;32;20111;-62
2022/10/16 18:04:49;;;;;;;3.70;2.28;;;14.40;99.90;;;;;;7313625;32;20131;-60
2022/10/16 18:08:52;;;;;;;4.47;2.12;;;14.40;99.90;;;;;;7320431;32;20288;-60
2022/10/16 18:12:53;;;;;;;4.15;1.98;;;14.40;99.90;;;;;;7313798;32;20522;-62
2022/10/16 18:16:56;;;;;;;7.80;4.28;;;14.50;99.90;;;;;;7312694;32;20138;-61
2022/10/16 18:21:00;;;;;;;4.97;2.15;;;14.50;99.90;;;;;;7313728;32;20112;-62
2022/10/16 18:25:06;;;;;;;8.23;2.58;;;14.60;99.90;;;;;;7310372;32;20147;-62
2022/10/16 18:29:09;;;;;;;4.47;1.80;;;14.70;99.90;;;;;;7317356;32;20698;-61
2022/10/16 18:33:11;;;;;;;2.70;1.37;;;14.70;99.90;;;;;;7315947;32;20294;-62
2022/10/16 18:37:13;;;;;;;3.62;1.40;;;14.80;99.90;;;;;;7308909;32;20221;-66
2022/10/16 18:41:14;;;;;;;3.80;2.33;;;14.80;99.90;;;;;;7312348;32;20499;-62
2022/10/16 18:45:16;;;;;;;19.77;13.05;;;14.80;99.90;;;;;;7310440;32;20546;-63
2022/10/16 18:49:18;;;;;;;7.70;3.67;;;14.90;99.90;;;;;;7311851;32;20108;-63
2022/10/16 18:53:20;;;;;;;8.95;3.28;;;15.10;99.90;;;;;;7312815;32;20180;-63
2022/10/16 18:57:22;;;;;;;3.90;1.60;;;15.10;99.90;;;;;;7319057;32;20201;-63
2022/10/16 19:01:26;;;;;;;5.87;1.30;;;15.20;99.90;;;;;;7320636;32;20112;-65
2022/10/16 19:05:28;;;;;;;2.62;1.20;;;15.30;99.90;;;;;;7317180;32;20154;-65
2022/10/16 19:09:29;;;;;;;3.50;1.60;;;15.30;99.90;;;;;;7327669;32;20111;-62
2022/10/16 19:13:32;;;;;;;4.20;2.22;;;15.40;99.90;;;;;;7322137;32;20197;-62
2022/10/16 19:17:36;;;;;;;7.20;2.20;;;15.40;99.90;;;;;;7319382;32;20262;-63
2022/10/16 19:21:41;;;;;;;4.75;2.40;;;15.30;99.90;;;;;;7317837;32;20611;-63
2022/10/16 19:25:43;;;;;;;4.40;2.17;;;15.30;99.90;;;;;;7320614;32;20108;-63
2022/10/16 19:29:44;;;;;;;6.90;2.72;;;15.20;99.90;;;;;;7321932;32;20597;-63
2022/10/16 19:33:49;;;;;;;11.73;3.10;;;15.10;99.90;;;;;;7319369;32;20131;-63
2022/10/16 19:37:51;;;;;;;11.38;3.37;;;15.00;99.90;;;;;;7313433;32;20713;-61
2022/10/16 19:41:53;;;;;;;9.73;3.87;;;14.90;99.90;;;;;;7317959;32;20153;-62
2022/10/16 19:45:55;;;;;;;11.15;5.37;;;14.80;99.90;;;;;;7318024;32;20789;-61
2022/10/16 19:49:56;;;;;;;4.87;3.25;;;14.80;99.90;;;;;;7325327;32;20131;-61
2022/10/16 19:54:01;;;;;;;5.95;3.05;;;14.80;99.90;;;;;;7312574;32;20107;-61
2022/10/16 19:58:03;;;;;;;12.40;7.45;;;14.70;99.90;;;;;;7310520;32;20471;-62
2022/10/16 20:02:04;;;;;;;9.90;7.57;;;14.60;99.90;;;;;;7311454;32;20531;-63
2022/10/16 20:06:08;;;;;;;4.15;2.72;;;14.60;99.90;;;;;;7314507;32;20126;-62
2022/10/16 20:10:09;;;;;;;8.23;2.80;;;14.50;99.90;;;;;;7312061;32;20230;-63
2022/10/16 20:14:11;;;;;;;10.02;2.83;;;14.40;99.90;;;;;;7311205;32;20221;-63
2022/10/16 20:18:14;;;;;;;7.55;2.85;;;14.30;99.90;;;;;;7313940;32;20203;-65
2022/10/16 20:22:16;;;;;;;12.15;3.25;;;14.30;99.90;;;;;;7317345;32;20566;-63
2022/10/16 20:26:19;;;;;;;7.05;2.35;;;14.20;99.90;;;;;;7322577;32;20116;-63
2022/10/16 20:30:21;;;;;;;10.40;2.60;;;14.10;99.90;;;;;;7322028;32;20266;-62
2022/10/16 20:34:22;;;;;;;5.85;2.67;;;14.00;99.90;;;;;;7327264;32;20130;-64
2022/10/16 20:38:25;;;;;;;4.78;2.58;;;13.90;99.90;;;;;;7324661;32;20134;-62
2022/10/16 20:42:26;;;;;;;5.95;2.67;;;13.80;99.90;;;;;;7322761;32;20190;-62
2022/10/16 20:46:28;;;;;;;9.52;2.58;;;13.80;99.90;;;;;;7322350;32;20111;-63
2022/10/16 20:50:31;;;;;;;7.05;2.30;;;13.70;99.90;;;;;;7312446;32;20138;-61
2022/10/16 20:54:32;;;;;;;6.72;2.40;;;13.60;99.90;;;;;;7318647;32;20626;-61
2022/10/16 20:58:35;;;;;;;6.12;2.80;;;13.60;99.90;;;;;;7311909;32;20497;-62
2022/10/16 21:02:37;;;;;;;5.62;2.70;;;13.50;99.90;;;;;;7315556;32;20568;-62
2022/10/16 21:06:39;;;;;;;9.68;2.97;;;13.50;99.90;;;;;;7314828;32;20134;-63
2022/10/16 21:10:41;;;;;;;9.02;3.17;;;13.40;99.90;;;;;;7315037;32;20209;-62
2022/10/16 21:14:43;;;;;;;7.93;2.97;;;13.40;99.90;;;;;;7316672;32;20225;-62
2022/10/16 21:19:04;;;;;;;5.20;2.72;;;13.30;99.90;;;;;;7315105;32;20130;-62
2022/10/16 21:23:06;;;;;;;10.65;3.10;;;13.20;99.90;;;;;;7312468;32;20150;-62